createdAt,value
2022-11-15T00:01:31.468Z,100334.88
2022-11-15T00:04:17.019Z,100338.25
2022-11-15T00:07:02.404Z,100333.06
2022-11-15T00:09:47.672Z,100336.00
2022-11-15T00:12:32.920Z,100325.75
2022-11-15T00:15:18.175Z,100325.84
2022-11-15T00:18:04.783Z,100324.97
2022-11-15T00:20:49.823Z,100324.66
2022-11-15T00:23:35.127Z,100330.88
2022-11-15T00:26:20.592Z,100337.28
2022-11-15T00:29:06.506Z,100325.81
2022-11-15T00:31:51.669Z,100337.41
2022-11-15T00:34:37.189Z,100331.56
2022-11-15T00:37:22.072Z,100335.13
2022-11-15T00:40:08.532Z,100338.28
2022-11-15T00:42:53.781Z,100332.59
2022-11-15T00:45:38.783Z,100338.19
2022-11-15T00:48:24.132Z,100333.88
2022-11-15T00:51:09.308Z,100329.44
2022-11-15T00:53:54.181Z,100324.38
2022-11-15T00:56:39.436Z,100325.56
2022-11-15T00:59:24.302Z,100333.00
2022-11-15T01:02:09.562Z,100326.88
2022-11-15T01:04:54.733Z,100328.78
2022-11-15T01:07:40.455Z,100326.22
2022-11-15T01:10:26.840Z,100324.78
2022-11-15T01:13:12.172Z,100319.41
2022-11-15T01:15:57.378Z,100321.34
2022-11-15T01:18:42.436Z,100321.03
2022-11-15T01:21:27.938Z,100325.25
2022-11-15T01:24:14.111Z,100326.09
2022-11-15T01:26:59.277Z,100314.41
2022-11-15T01:29:44.378Z,100309.75
2022-11-15T01:32:29.496Z,100300.72
2022-11-15T01:35:14.483Z,100293.53
2022-11-15T01:37:59.619Z,100296.63
2022-11-15T01:40:44.617Z,100293.81
2022-11-15T01:43:37.007Z,100291.59
2022-11-15T01:46:33.255Z,100288.47
2022-11-15T01:49:21.884Z,100291.00
2022-11-15T01:52:09.942Z,100284.22
2022-11-15T01:55:04.998Z,100280.78
2022-11-15T01:57:54.749Z,100287.88
2022-11-15T02:00:39.879Z,100281.75
2022-11-15T02:03:34.298Z,100273.50
2022-11-15T02:06:19.888Z,100270.69
2022-11-15T02:09:05.720Z,100275.97
2022-11-15T02:11:52.869Z,100281.41
2022-11-15T02:14:41.375Z,100278.91
2022-11-15T02:17:39.190Z,100283.50
2022-11-15T02:20:45.587Z,100275.66
2022-11-15T02:23:34.568Z,100266.66
2022-11-15T02:26:38.289Z,100271.81
2022-11-15T02:29:35.460Z,100267.72
2022-11-15T02:32:34.051Z,100259.56
2022-11-15T02:35:46.748Z,100265.22
2022-11-15T02:38:35.087Z,100255.66
2022-11-15T02:41:41.467Z,100255.94
2022-11-15T02:44:55.034Z,100253.13
2022-11-15T02:47:46.965Z,100253.22
2022-11-15T02:50:34.079Z,100251.31
2022-11-15T02:53:19.107Z,100245.34
2022-11-15T02:56:04.504Z,100250.19
2022-11-15T02:59:03.124Z,100237.63
2022-11-15T03:02:19.851Z,100244.25
2022-11-15T03:05:18.599Z,100242.00
2022-11-15T03:08:41.418Z,100237.50
2022-11-15T03:11:26.766Z,100236.44
2022-11-15T03:14:34.108Z,100240.47
2022-11-15T03:17:31.253Z,100239.88
2022-11-15T03:20:18.979Z,100240.97
2022-11-15T03:23:10.357Z,100233.03
2022-11-15T03:25:58.124Z,100231.19
2022-11-15T03:29:04.239Z,100229.75
2022-11-15T03:31:56.712Z,100233.63
2022-11-15T03:35:06.355Z,100223.56
2022-11-15T03:38:04.966Z,100223.28
2022-11-15T03:40:59.922Z,100230.25
2022-11-15T03:43:51.036Z,100223.41
2022-11-15T03:47:05.292Z,100221.44
2022-11-15T03:49:54.408Z,100210.63
2022-11-15T03:52:41.177Z,100216.00
2022-11-15T03:55:26.105Z,100218.50
2022-11-15T03:58:11.434Z,100212.25
2022-11-15T04:00:56.697Z,100203.16
2022-11-15T04:03:41.805Z,100205.63
2022-11-15T04:06:26.936Z,100206.03
2022-11-15T04:09:12.256Z,100200.38
2022-11-15T04:11:57.346Z,100204.13
2022-11-15T04:15:02.559Z,100201.09
2022-11-15T04:17:53.374Z,100204.75
2022-11-15T04:20:57.068Z,100209.47
2022-11-15T04:23:48.157Z,100205.69
2022-11-15T04:26:33.663Z,100199.91
2022-11-15T04:29:37.199Z,100205.56
2022-11-15T04:32:22.624Z,100211.84
2022-11-15T04:35:08.360Z,100212.50
2022-11-15T04:37:53.740Z,100223.00
2022-11-15T04:40:39.300Z,100218.03
2022-11-15T04:43:24.253Z,100215.28
2022-11-15T04:46:09.541Z,100214.00
2022-11-15T04:48:58.528Z,100215.28
2022-11-15T04:51:45.327Z,100227.13
2022-11-15T04:54:30.723Z,100228.22
2022-11-15T04:57:16.208Z,100225.31
2022-11-15T05:00:01.022Z,100223.41
2022-11-15T05:03:04.393Z,100228.31
2022-11-15T05:05:49.548Z,100233.91
2022-11-15T05:08:34.561Z,100235.09
2022-11-15T05:11:20.011Z,100231.94
2022-11-15T05:14:04.962Z,100238.09
2022-11-15T05:16:50.358Z,100224.88
2022-11-15T05:19:35.610Z,100224.88
2022-11-15T05:22:21.357Z,100220.56
2022-11-15T05:25:07.583Z,100218.28
2022-11-15T05:27:52.985Z,100213.34
2022-11-15T05:30:37.807Z,100205.63
2022-11-15T05:33:24.926Z,100205.28
2022-11-15T05:36:38.250Z,100209.69
2022-11-15T05:39:23.737Z,100199.19
2022-11-15T05:42:12.663Z,100202.28
2022-11-15T05:44:59.524Z,100205.84
2022-11-15T05:47:45.881Z,100203.97
2022-11-15T05:50:31.582Z,100201.50
2022-11-15T05:53:20.979Z,100195.53
2022-11-15T05:56:07.599Z,100210.66
2022-11-15T05:58:59.537Z,100203.41
2022-11-15T06:01:45.372Z,100205.22
2022-11-15T06:04:30.705Z,100213.59
2022-11-15T06:07:15.917Z,100209.16
2022-11-15T06:10:01.132Z,100214.56
2022-11-15T06:12:46.435Z,100216.53
2022-11-15T06:15:34.569Z,100224.28
2022-11-15T06:18:19.709Z,100223.31
2022-11-15T06:21:05.478Z,100224.03
2022-11-15T06:23:50.262Z,100223.94
2022-11-15T06:26:35.690Z,100226.16
2022-11-15T06:29:20.825Z,100230.88
2022-11-15T06:32:06.095Z,100228.19
2022-11-15T06:34:51.645Z,100229.44
2022-11-15T06:37:36.817Z,100233.88
2022-11-15T06:40:22.417Z,100232.44
2022-11-15T06:43:08.162Z,100231.38
2022-11-15T06:45:53.396Z,100237.06
2022-11-15T06:48:38.700Z,100243.97
2022-11-15T06:51:23.709Z,100240.81
2022-11-15T06:54:08.925Z,100241.75
2022-11-15T06:56:53.777Z,100251.78
2022-11-15T06:59:40.821Z,100245.88
2022-11-15T07:02:26.177Z,100247.59
2022-11-15T07:05:12.222Z,100248.59
2022-11-15T07:07:58.542Z,100257.75
2022-11-15T07:10:43.751Z,100257.47
2022-11-15T07:13:34.333Z,100268.22
2022-11-15T07:16:20.525Z,100274.88
2022-11-15T07:19:05.764Z,100276.22
2022-11-15T07:21:50.817Z,100262.44
2022-11-15T07:24:35.781Z,100265.56
2022-11-15T07:27:21.301Z,100271.28
2022-11-15T07:30:07.346Z,100265.16
2022-11-15T07:33:00.338Z,100265.28
2022-11-15T07:35:47.478Z,100263.75
2022-11-15T07:38:38.025Z,100271.66
2022-11-15T07:41:26.094Z,100266.31
2022-11-15T07:44:11.020Z,100273.97
2022-11-15T07:46:56.194Z,100278.19
2022-11-15T07:49:41.299Z,100283.09
2022-11-15T07:52:27.597Z,100278.16
2022-11-15T07:55:13.131Z,100277.22
2022-11-15T07:58:05.469Z,100284.03
2022-11-15T08:00:50.553Z,100270.59
2022-11-15T08:03:36.535Z,100270.56
2022-11-15T08:06:21.576Z,100265.28
2022-11-15T08:09:06.485Z,100271.44
2022-11-15T08:14:47.143Z,100270.16
2022-11-15T08:17:33.865Z,100269.09
2022-11-15T08:20:20.506Z,100263.41
2022-11-15T08:23:06.073Z,100259.81
2022-11-15T08:25:51.341Z,100256.91
2022-11-15T08:28:36.586Z,100263.91
2022-11-15T08:31:21.625Z,100256.19
2022-11-15T08:34:07.375Z,100254.91
2022-11-15T08:36:52.711Z,100251.88
2022-11-15T08:39:38.875Z,100253.50
2022-11-15T08:42:24.105Z,100240.72
2022-11-15T08:45:10.021Z,100238.31
2022-11-15T08:47:55.100Z,100239.13
2022-11-15T08:50:40.399Z,100230.97
2022-11-15T08:53:25.812Z,100232.41
2022-11-15T08:56:13.403Z,100234.88
2022-11-15T08:58:58.689Z,100235.38
2022-11-15T09:01:43.593Z,100232.38
2022-11-15T09:04:29.011Z,100222.72
2022-11-15T09:07:14.620Z,100216.72
2022-11-15T09:09:59.721Z,100217.38
2022-11-15T09:12:45.044Z,100215.19
2022-11-15T09:15:30.249Z,100214.59
2022-11-15T09:18:15.566Z,100225.44
2022-11-15T09:21:01.375Z,100217.94
2022-11-15T09:23:46.245Z,100220.84
2022-11-15T09:26:31.803Z,100220.31
2022-11-15T09:29:16.924Z,100218.63
2022-11-15T09:32:01.890Z,100215.69
2022-11-15T09:34:47.083Z,100213.84
2022-11-15T09:37:33.457Z,100219.97
2022-11-15T09:40:27.236Z,100223.06
2022-11-15T09:43:25.472Z,100214.66
2022-11-15T09:46:29.004Z,100220.94
2022-11-15T09:49:33.420Z,100223.06
2022-11-15T09:52:13.139Z,100224.03
2022-11-15T09:54:58.192Z,100223.75
2022-11-15T09:57:39.894Z,100222.56
2022-11-15T10:00:43.970Z,100212.25
2022-11-15T10:03:10.302Z,100213.22
2022-11-15T10:05:47.161Z,100213.22
2022-11-15T10:08:32.404Z,100214.22
2022-11-15T10:13:53.612Z,100193.41
2022-11-15T10:16:29.296Z,100192.78
2022-11-15T10:19:26.861Z,100200.00
2022-11-15T10:21:58.792Z,100196.94
2022-11-15T10:24:45.765Z,100192.00
2022-11-15T10:27:18.264Z,100193.72
2022-11-15T10:29:51.710Z,100183.13
2022-11-15T10:32:20.406Z,100181.09
2022-11-15T10:34:49.758Z,100185.00
2022-11-15T10:37:29.058Z,100174.47
2022-11-15T10:40:19.161Z,100184.97
2022-11-15T10:42:46.313Z,100171.22
2022-11-15T10:45:28.317Z,100173.56
2022-11-15T10:48:14.996Z,100164.00
2022-11-15T10:50:46.960Z,100145.59
2022-11-15T10:53:22.174Z,100145.22
2022-11-15T10:55:52.229Z,100151.44
2022-11-15T10:58:42.162Z,100144.63
2022-11-15T11:01:14.293Z,100145.75
2022-11-15T11:03:42.501Z,100142.13
2022-11-15T11:06:18.101Z,100135.66
2022-11-15T11:08:59.642Z,100132.88
2022-11-15T11:11:45.614Z,100122.31
2022-11-15T11:14:14.640Z,100122.13
2022-11-15T11:16:51.086Z,100116.91
2022-11-15T11:19:17.654Z,100118.16
2022-11-15T11:22:01.534Z,100110.66
2022-11-15T11:24:41.956Z,100118.31
2022-11-15T11:27:08.489Z,100117.81
2022-11-15T11:29:43.188Z,100113.06
2022-11-15T11:32:31.771Z,100108.16
2022-11-15T11:35:07.885Z,100113.66
2022-11-15T11:38:02.251Z,100109.97
2022-11-15T11:40:31.258Z,100116.69
2022-11-15T11:43:26.726Z,100110.00
2022-11-15T11:46:13.520Z,100112.00
2022-11-15T11:48:46.050Z,100110.75
2022-11-15T11:51:19.264Z,100105.03
2022-11-15T11:53:58.270Z,100107.78
2022-11-15T11:56:30.649Z,100101.31
2022-11-15T11:59:21.669Z,100102.34
2022-11-15T12:01:48.530Z,100107.22
2022-11-15T12:04:22.137Z,100101.09
2022-11-15T12:06:54.554Z,100093.19
2022-11-15T12:09:21.920Z,100090.56
2022-11-15T12:12:07.054Z,100096.44
2022-11-15T12:14:57.202Z,100094.75
2022-11-15T12:17:32.957Z,100090.91
2022-11-15T12:20:17.401Z,100094.31
2022-11-15T12:23:04.655Z,100093.63
2022-11-15T12:25:42.333Z,100083.66
2022-11-15T12:28:14.666Z,100087.84
2022-11-15T12:30:47.883Z,100084.69
2022-11-15T12:33:43.222Z,100078.78
2022-11-15T12:36:22.038Z,100078.22
2022-11-15T12:39:00.189Z,100076.09
2022-11-15T12:41:32.157Z,100079.34
2022-11-15T12:44:02.678Z,100074.25
2022-11-15T12:46:32.007Z,100075.63
2022-11-15T12:49:00.220Z,100075.56
2022-11-15T12:51:48.504Z,100081.84
2022-11-15T12:54:23.922Z,100073.25
2022-11-15T12:57:08.585Z,100074.34
2022-11-15T12:59:56.415Z,100067.44
2022-11-15T13:02:27.528Z,100068.91
2022-11-15T13:05:20.833Z,100063.63
2022-11-15T13:07:47.410Z,100070.06
2022-11-15T13:10:13.953Z,100068.44
2022-11-15T13:12:43.682Z,100070.56
2022-11-15T13:15:12.981Z,100063.13
2022-11-15T13:17:49.625Z,100059.25
2022-11-15T13:20:16.245Z,100056.50
2022-11-15T13:22:51.974Z,100060.13
2022-11-15T13:25:27.645Z,100059.97
2022-11-15T13:28:02.372Z,100052.16
2022-11-15T13:30:32.393Z,100051.59
2022-11-15T13:33:10.640Z,100052.97
2022-11-15T13:35:41.206Z,100050.19
2022-11-15T13:38:21.261Z,100056.41
2022-11-15T13:40:47.901Z,100052.88
2022-11-15T13:43:28.612Z,100044.09
2022-11-15T13:46:19.825Z,100044.19
2022-11-15T13:48:48.358Z,100039.72
2022-11-15T13:51:39.113Z,100039.94
2022-11-15T13:54:20.942Z,100036.34
2022-11-15T13:56:56.812Z,100035.81
2022-11-15T13:59:29.112Z,100031.16
2022-11-15T14:01:58.708Z,100025.94
2022-11-15T14:04:27.514Z,100031.50
2022-11-15T14:07:00.590Z,100025.94
2022-11-15T14:09:38.886Z,100019.13
2022-11-15T14:12:25.766Z,100023.16
2022-11-15T14:17:36.938Z,100018.41
2022-11-15T14:20:20.437Z,100016.63
2022-11-15T14:22:58.650Z,100009.06
2022-11-15T14:25:30.811Z,100010.53
2022-11-15T14:28:23.335Z,100002.00
2022-11-15T14:30:52.671Z,100004.25
2022-11-15T14:33:24.119Z,100003.47
2022-11-15T14:35:51.813Z,100007.72
2022-11-15T14:38:18.599Z,100007.22
2022-11-15T14:40:45.975Z,100008.19
2022-11-15T14:43:13.657Z,100000.09
2022-11-15T14:45:40.602Z,99998.41
2022-11-15T14:48:07.390Z,99994.19
2022-11-15T14:50:35.508Z,99981.47
2022-11-15T14:53:02.816Z,99988.22
2022-11-15T14:55:33.012Z,99993.91
2022-11-15T14:58:00.327Z,99998.31
2022-11-15T15:00:30.872Z,100003.06
2022-11-15T15:03:00.983Z,99995.09
2022-11-15T15:05:34.977Z,99996.78
2022-11-15T15:08:02.363Z,99994.88
2022-11-15T15:10:39.931Z,99985.19
2022-11-15T15:13:24.158Z,99983.13
2022-11-15T15:15:52.411Z,99978.94
2022-11-15T15:18:20.808Z,99975.56
2022-11-15T15:20:55.405Z,99979.31
2022-11-15T15:23:22.214Z,99981.44
2022-11-15T15:25:50.072Z,99986.75
2022-11-15T15:28:16.895Z,99980.88
2022-11-15T15:30:43.549Z,99982.94
2022-11-15T15:33:10.153Z,99984.84
2022-11-15T15:35:36.916Z,99976.41
2022-11-15T15:38:04.510Z,99981.25
2022-11-15T15:40:32.504Z,99974.78
2022-11-15T15:42:59.904Z,99967.28
2022-11-15T15:45:28.240Z,99971.09
2022-11-15T15:47:54.933Z,99959.16
2022-11-15T15:50:25.869Z,99949.75
2022-11-15T15:52:54.753Z,99955.88
2022-11-15T15:55:21.879Z,99951.97
2022-11-15T15:57:49.335Z,99951.41
2022-11-15T16:00:17.086Z,99946.94
2022-11-15T16:02:44.452Z,99940.00
2022-11-15T16:05:12.360Z,99941.41
2022-11-15T16:07:40.532Z,99938.19
2022-11-15T16:10:31.874Z,99941.78
2022-11-15T16:12:59.168Z,99943.50
2022-11-15T16:15:30.383Z,99943.97
2022-11-15T16:17:59.327Z,99938.19
2022-11-15T16:20:34.236Z,99930.59
2022-11-15T16:23:07.649Z,99928.94
2022-11-15T16:25:40.899Z,99931.75
2022-11-15T16:28:34.285Z,99929.81
2022-11-15T16:31:05.168Z,99929.09
2022-11-15T16:33:32.723Z,99929.66
2022-11-15T16:35:59.626Z,99929.19
2022-11-15T16:38:26.272Z,99924.91
2022-11-15T16:40:52.849Z,99931.91
2022-11-15T16:43:19.606Z,99923.38
2022-11-15T16:45:46.293Z,99923.94
2022-11-15T16:48:42.094Z,99912.56
2022-11-15T16:51:09.179Z,99917.84
2022-11-15T16:53:35.709Z,99916.59
2022-11-15T16:56:02.441Z,99915.41
2022-11-15T16:58:29.213Z,99919.50
2022-11-15T17:00:57.281Z,99915.50
2022-11-15T17:03:25.396Z,99915.06
2022-11-15T17:05:52.224Z,99908.22
2022-11-15T17:08:20.908Z,99911.81
2022-11-15T17:10:47.595Z,99909.06
2022-11-15T17:13:14.380Z,99918.91
2022-11-15T17:15:41.077Z,99913.53
2022-11-15T17:18:09.171Z,99908.03
2022-11-15T17:20:35.817Z,99903.09
2022-11-15T17:23:02.442Z,99901.41
2022-11-15T17:25:29.053Z,99894.38
2022-11-15T17:27:56.670Z,99901.38
2022-11-15T17:30:23.283Z,99896.06
2022-11-15T17:32:49.882Z,99897.78
2022-11-15T17:35:16.604Z,99904.25
2022-11-15T17:37:44.322Z,99898.91
2022-11-15T17:40:11.461Z,99888.53
2022-11-15T17:42:41.523Z,99884.34
2022-11-15T17:45:10.981Z,99893.84
2022-11-15T17:47:37.860Z,99896.16
2022-11-15T17:50:05.153Z,99891.91
2022-11-15T17:52:31.751Z,99891.31
2022-11-15T17:54:58.385Z,99892.88
2022-11-15T17:57:24.947Z,99891.25
2022-11-15T17:59:51.537Z,99898.63
2022-11-15T18:02:18.158Z,99883.59
2022-11-15T18:04:44.796Z,99880.91
2022-11-15T18:07:12.419Z,99885.47
2022-11-15T18:09:42.376Z,99885.09
2022-11-15T18:12:10.241Z,99881.41
2022-11-15T18:14:37.084Z,99871.63
2022-11-15T18:17:03.722Z,99869.94
2022-11-15T18:19:30.240Z,99857.41
2022-11-15T18:21:56.909Z,99860.25
2022-11-15T18:24:25.170Z,99864.56
2022-11-15T18:26:52.010Z,99858.75
2022-11-15T18:29:19.758Z,99857.13
2022-11-15T18:31:50.102Z,99850.78
2022-11-15T18:34:17.190Z,99858.44
2022-11-15T18:36:44.037Z,99845.84
2022-11-15T18:39:16.455Z,99849.28
2022-11-15T18:41:44.335Z,99847.59
2022-11-15T18:44:10.922Z,99848.13
2022-11-15T18:46:39.238Z,99842.84
2022-11-15T18:49:07.644Z,99845.66
2022-11-15T18:51:36.757Z,99841.34
2022-11-15T18:54:04.070Z,99841.50
2022-11-15T18:56:31.890Z,99840.94
2022-11-15T18:59:00.339Z,99833.72
2022-11-15T19:01:29.516Z,99836.97
2022-11-15T19:03:58.325Z,99842.06
2022-11-15T19:06:27.266Z,99839.03
2022-11-15T19:08:56.486Z,99832.00
2022-11-15T19:11:31.664Z,99835.22
2022-11-15T19:14:00.581Z,99828.91
2022-11-15T19:16:27.907Z,99824.72
2022-11-15T19:18:56.417Z,99820.25
2022-11-15T19:21:24.077Z,99818.75
2022-11-15T19:23:52.919Z,99818.94
2022-11-15T19:26:21.618Z,99824.63
2022-11-15T19:28:59.290Z,99816.88
2022-11-15T19:31:28.084Z,99816.94
2022-11-15T19:33:55.485Z,99804.34
2022-11-15T19:36:26.024Z,99813.44
2022-11-15T19:38:53.896Z,99810.06
2022-11-15T19:41:22.765Z,99803.41
2022-11-15T19:43:53.086Z,99802.75
2022-11-15T19:46:21.949Z,99801.91
2022-11-15T19:48:48.504Z,99797.38
2022-11-15T19:51:24.562Z,99796.59
2022-11-15T19:53:56.101Z,99789.97
2022-11-15T19:56:23.171Z,99789.41
2022-11-15T19:58:54.367Z,99793.75
2022-11-15T20:01:32.309Z,99794.13
2022-11-15T20:04:00.099Z,99798.09
2022-11-15T20:06:30.611Z,99795.91
2022-11-15T20:08:57.823Z,99791.09
2022-11-15T20:11:25.876Z,99783.91
2022-11-15T20:16:52.977Z,99791.66
2022-11-15T20:19:21.016Z,99780.50
2022-11-15T20:21:47.580Z,99783.06
2022-11-15T20:24:14.480Z,99782.75
2022-11-15T20:26:41.438Z,99780.50
2022-11-15T20:29:09.944Z,99788.91
2022-11-15T20:31:36.716Z,99786.19
2022-11-15T20:34:03.403Z,99793.16
2022-11-15T20:36:30.140Z,99793.28
2022-11-15T20:38:58.362Z,99794.50
2022-11-15T20:41:25.266Z,99789.97
2022-11-15T20:43:51.992Z,99787.09
2022-11-15T20:46:19.829Z,99786.78
2022-11-15T20:48:46.399Z,99778.84
2022-11-15T20:51:15.493Z,99780.31
2022-11-15T20:53:43.397Z,99779.91
2022-11-15T20:56:15.791Z,99773.50
2022-11-15T20:58:44.655Z,99761.94
2022-11-15T21:01:14.272Z,99769.84
2022-11-15T21:03:40.986Z,99768.91
2022-11-15T21:06:08.125Z,99755.38
2022-11-15T21:08:53.613Z,99757.34
2022-11-15T21:11:39.340Z,99746.19
2022-11-15T21:14:09.361Z,99750.16
2022-11-15T21:16:37.077Z,99740.63
2022-11-15T21:19:03.650Z,99734.09
2022-11-15T21:21:30.286Z,99734.22
2022-11-15T21:23:57.058Z,99734.31
2022-11-15T21:26:23.753Z,99730.31
2022-11-15T21:28:50.358Z,99729.56
2022-11-15T21:31:16.967Z,99729.06
2022-11-15T21:33:43.504Z,99724.25
2022-11-15T21:36:10.258Z,99725.78
2022-11-15T21:38:36.874Z,99724.44
2022-11-15T21:41:04.048Z,99728.44
2022-11-15T21:43:30.665Z,99720.09
2022-11-15T21:46:02.125Z,99718.00
2022-11-15T21:48:30.606Z,99720.47
2022-11-15T21:51:05.773Z,99719.81
2022-11-15T21:53:32.987Z,99715.69
2022-11-15T21:56:00.939Z,99713.84
2022-11-15T21:58:28.050Z,99712.13
2022-11-15T22:01:14.028Z,99713.06
2022-11-15T22:03:41.132Z,99708.34
2022-11-15T22:06:09.158Z,99715.19
2022-11-15T22:08:38.540Z,99712.13
2022-11-15T22:11:05.661Z,99712.88
2022-11-15T22:13:32.291Z,99709.47
2022-11-15T22:15:59.135Z,99714.94
2022-11-15T22:18:26.771Z,99717.59
2022-11-15T22:21:02.735Z,99706.81
2022-11-15T22:23:31.153Z,99705.31
2022-11-15T22:25:57.978Z,99703.97
2022-11-15T22:28:24.652Z,99700.94
2022-11-15T22:30:53.306Z,99693.00
2022-11-15T22:33:21.744Z,99691.56
2022-11-15T22:35:48.734Z,99681.47
2022-11-15T22:38:15.739Z,99677.31
2022-11-15T22:40:43.853Z,99689.28
2022-11-15T22:43:12.859Z,99679.66
2022-11-15T22:45:56.595Z,99673.91
2022-11-15T22:48:32.189Z,99683.91
2022-11-15T22:50:59.541Z,99684.13
2022-11-15T22:53:26.421Z,99681.84
2022-11-15T22:56:04.034Z,99688.19
2022-11-15T22:58:32.855Z,99686.19
2022-11-15T23:01:02.749Z,99687.13
2022-11-15T23:03:30.559Z,99697.81
2022-11-15T23:06:05.725Z,99691.50
2022-11-15T23:08:32.867Z,99691.50
2022-11-15T23:11:22.608Z,99689.69
2022-11-15T23:13:52.649Z,99684.19
2022-11-15T23:16:23.660Z,99690.94
2022-11-15T23:18:57.024Z,99687.63
2022-11-15T23:21:51.314Z,99683.75
2022-11-15T23:24:18.644Z,99678.44
2022-11-15T23:26:47.453Z,99669.72
2022-11-15T23:29:16.746Z,99678.22
2022-11-15T23:32:02.853Z,99678.28
2022-11-15T23:34:31.296Z,99671.75
2022-11-15T23:36:58.638Z,99675.63
2022-11-15T23:39:25.395Z,99657.69
2022-11-15T23:41:51.982Z,99656.59
2022-11-15T23:44:18.629Z,99659.84
2022-11-15T23:46:45.316Z,99648.09
2022-11-15T23:49:11.996Z,99645.06
2022-11-15T23:51:38.542Z,99647.91
2022-11-15T23:54:05.788Z,99640.66
2022-11-15T23:56:32.502Z,99650.03
2022-11-15T23:58:59.362Z,99642.22
